sensor_id;sensor_type;location;lat;lon;timestamp;pressure;altitude;pressure_sealevel;temperature;humidity
78229;BME280;74448;49.082;9.152;2024-02-21T00:00:03;100387.91;;;9.78;62.70
78229;BME280;74448;49.082;9.152;2024-02-21T00:02:29;100389.41;;;9.82;62.64
78229;BME280;74448;49.082;9.152;2024-02-21T00:04:56;100393.00;;;9.81;62.65
78229;BME280;74448;49.082;9.152;2024-02-21T00:07:23;100383.38;;;9.80;62.68
78229;BME280;74448;49.082;9.152;2024-02-21T00:09:49;100379.03;;;9.79;63.05
78229;BME280;74448;49.082;9.152;2024-02-21T00:12:16;100367.63;;;9.79;62.95
78229;BME280;74448;49.082;9.152;2024-02-21T00:14:43;100363.19;;;9.79;63.08
78229;BME280;74448;49.082;9.152;2024-02-21T00:17:10;100363.38;;;9.76;62.85
78229;BME280;74448;49.082;9.152;2024-02-21T00:19:36;100351.00;;;9.77;62.77
78229;BME280;74448;49.082;9.152;2024-02-21T00:22:03;100351.00;;;9.77;62.98
78229;BME280;74448;49.082;9.152;2024-02-21T00:24:30;100346.56;;;9.77;62.96
78229;BME280;74448;49.082;9.152;2024-02-21T00:26:56;100336.38;;;9.71;62.92
78229;BME280;74448;49.082;9.152;2024-02-21T00:29:23;100342.25;;;9.76;63.01
78229;BME280;74448;49.082;9.152;2024-02-21T00:31:50;100334.69;;;9.70;62.91
78229;BME280;74448;49.082;9.152;2024-02-21T00:34:17;100327.53;;;9.72;62.90
78229;BME280;74448;49.082;9.152;2024-02-21T00:36:44;100323.94;;;9.73;62.66
78229;BME280;74448;49.082;9.152;2024-02-21T00:39:10;100326.56;;;9.73;62.70
78229;BME280;74448;49.082;9.152;2024-02-21T00:41:37;100324.03;;;9.71;62.83
78229;BME280;74448;49.082;9.152;2024-02-21T00:44:04;100327.69;;;9.69;63.02
78229;BME280;74448;49.082;9.152;2024-02-21T00:46:32;100308.78;;;9.61;62.97
78229;BME280;74448;49.082;9.152;2024-02-21T00:48:59;100323.34;;;9.68;63.18
78229;BME280;74448;49.082;9.152;2024-02-21T00:51:25;100329.47;;;9.68;62.98
78229;BME280;74448;49.082;9.152;2024-02-21T00:53:52;100316.28;;;9.68;62.79
78229;BME280;74448;49.082;9.152;2024-02-21T00:56:18;100319.00;;;9.67;62.99
78229;BME280;74448;49.082;9.152;2024-02-21T00:58:45;100312.88;;;9.66;63.07
78229;BME280;74448;49.082;9.152;2024-02-21T01:01:12;100310.31;;;9.65;63.20
78229;BME280;74448;49.082;9.152;2024-02-21T01:03:39;100312.97;;;9.65;62.95
78229;BME280;74448;49.082;9.152;2024-02-21T01:06:05;100313.06;;;9.63;63.01
78229;BME280;74448;49.082;9.152;2024-02-21T01:08:33;100304.28;;;9.63;63.09
78229;BME280;74448;49.082;9.152;2024-02-21T01:10:59;100302.41;;;9.65;62.86
78229;BME280;74448;49.082;9.152;2024-02-21T01:13:26;100296.38;;;9.63;62.95
78229;BME280;74448;49.082;9.152;2024-02-21T01:15:53;100293.63;;;9.64;62.96
78229;BME280;74448;49.082;9.152;2024-02-21T01:18:20;100286.75;;;9.62;63.06
78229;BME280;74448;49.082;9.152;2024-02-21T01:20:47;100287.59;;;9.62;62.94
78229;BME280;74448;49.082;9.152;2024-02-21T01:23:13;100282.41;;;9.61;63.11
78229;BME280;74448;49.082;9.152;2024-02-21T01:25:40;100276.38;;;9.59;63.15
78229;BME280;74448;49.082;9.152;2024-02-21T01:28:07;100276.47;;;9.57;63.05
78229;BME280;74448;49.082;9.152;2024-02-21T01:30:34;100275.53;;;9.58;63.17
78229;BME280;74448;49.082;9.152;2024-02-21T01:33:01;100268.44;;;9.59;63.35
78229;BME280;74448;49.082;9.152;2024-02-21T01:35:27;100271.09;;;9.59;63.02
78229;BME280;74448;49.082;9.152;2024-02-21T01:37:54;100266.81;;;9.56;63.26
78229;BME280;74448;49.082;9.152;2024-02-21T01:40:21;100251.84;;;9.57;63.43
78229;BME280;74448;49.082;9.152;2024-02-21T01:42:47;100252.78;;;9.56;63.40
78229;BME280;74448;49.082;9.152;2024-02-21T01:45:15;100253.72;;;9.55;63.38
78229;BME280;74448;49.082;9.152;2024-02-21T01:47:44;100244.13;;;9.54;63.31
78229;BME280;74448;49.082;9.152;2024-02-21T01:50:13;100239.69;;;9.54;63.17
78229;BME280;74448;49.082;9.152;2024-02-21T01:52:42;100235.44;;;9.52;63.54
78229;BME280;74448;49.082;9.152;2024-02-21T01:55:11;100228.47;;;9.51;63.47
78229;BME280;74448;49.082;9.152;2024-02-21T01:57:41;100225.81;;;9.51;63.45
78229;BME280;74448;49.082;9.152;2024-02-21T02:00:09;100213.84;;;9.45;63.26
78229;BME280;74448;49.082;9.152;2024-02-21T02:02:37;100217.06;;;9.50;63.34
78229;BME280;74448;49.082;9.152;2024-02-21T02:05:04;100216.22;;;9.50;63.31
78229;BME280;74448;49.082;9.152;2024-02-21T02:07:32;100215.34;;;9.49;63.28
78229;BME280;74448;49.082;9.152;2024-02-21T02:09:59;100224.19;;;9.48;63.45
78229;BME280;74448;49.082;9.152;2024-02-21T02:12:26;100222.50;;;9.47;63.40
78229;BME280;74448;49.082;9.152;2024-02-21T02:15:00;100224.28;;;9.46;63.27
78229;BME280;74448;49.082;9.152;2024-02-21T02:17:26;100228.78;;;9.44;63.35
78229;BME280;74448;49.082;9.152;2024-02-21T02:19:53;100234.00;;;9.46;63.60
78229;BME280;74448;49.082;9.152;2024-02-21T02:22:22;100230.50;;;9.45;63.53
78229;BME280;74448;49.082;9.152;2024-02-21T02:24:49;100239.19;;;9.47;63.46
78229;BME280;74448;49.082;9.152;2024-02-21T02:27:15;100240.22;;;9.45;63.64
78229;BME280;74448;49.082;9.152;2024-02-21T02:29:42;100235.84;;;9.44;63.32
78229;BME280;74448;49.082;9.152;2024-02-21T02:32:09;100222.66;;;9.44;63.43
78229;BME280;74448;49.082;9.152;2024-02-21T02:34:35;100219.19;;;9.43;63.41
78229;BME280;74448;49.082;9.152;2024-02-21T02:37:02;100228.78;;;9.44;63.41
78229;BME280;74448;49.082;9.152;2024-02-21T02:39:28;100216.53;;;9.43;63.42
78229;BME280;74448;49.082;9.152;2024-02-21T02:41:55;100213.91;;;9.43;63.29
78229;BME280;74448;49.082;9.152;2024-02-21T02:44:21;100223.72;;;9.41;63.53
78229;BME280;74448;49.082;9.152;2024-02-21T02:46:48;100207.78;;;9.43;63.60
78229;BME280;74448;49.082;9.152;2024-02-21T02:49:15;100205.25;;;9.41;63.51
78229;BME280;74448;49.082;9.152;2024-02-21T02:51:44;100200.13;;;9.38;63.43
78229;BME280;74448;49.082;9.152;2024-02-21T02:54:11;100196.66;;;9.38;63.60
78229;BME280;74448;49.082;9.152;2024-02-21T02:56:38;100175.88;;;9.32;63.42
78229;BME280;74448;49.082;9.152;2024-02-21T02:59:05;100176.38;;;9.38;63.53
78229;BME280;74448;49.082;9.152;2024-02-21T03:01:34;100186.94;;;9.38;63.54
78229;BME280;74448;49.082;9.152;2024-02-21T03:04:01;100173.84;;;9.37;63.62
78229;BME280;74448;49.082;9.152;2024-02-21T03:06:28;100165.16;;;9.35;63.49
78229;BME280;74448;49.082;9.152;2024-02-21T03:08:54;100165.06;;;9.36;63.68
78229;BME280;74448;49.082;9.152;2024-02-21T03:11:21;100162.41;;;9.36;63.65
78229;BME280;74448;49.082;9.152;2024-02-21T03:13:55;100152.91;;;9.34;63.56
78229;BME280;74448;49.082;9.152;2024-02-21T03:16:25;100150.38;;;9.32;63.62
78229;BME280;74448;49.082;9.152;2024-02-21T03:18:52;100146.03;;;9.31;63.55
78229;BME280;74448;49.082;9.152;2024-02-21T03:21:18;100132.81;;;9.31;63.37
78229;BME280;74448;49.082;9.152;2024-02-21T03:23:45;100131.13;;;9.30;63.73
78229;BME280;74448;49.082;9.152;2024-02-21T03:26:12;100133.59;;;9.33;63.72
78229;BME280;74448;49.082;9.152;2024-02-21T03:28:44;100133.59;;;9.33;63.46
78229;BME280;74448;49.082;9.152;2024-02-21T03:31:13;100129.28;;;9.32;63.62
78229;BME280;74448;49.082;9.152;2024-02-21T03:33:42;100133.03;;;9.28;63.58
78229;BME280;74448;49.082;9.152;2024-02-21T03:36:15;100137.44;;;9.28;63.59
78229;BME280;74448;49.082;9.152;2024-02-21T03:38:42;100139.81;;;9.32;63.56
78229;BME280;74448;49.082;9.152;2024-02-21T03:41:08;100134.72;;;9.29;63.84
78229;BME280;74448;49.082;9.152;2024-02-21T03:43:37;100116.31;;;9.28;63.80
78229;BME280;74448;49.082;9.152;2024-02-21T03:46:04;100115.47;;;9.27;63.71
78229;BME280;74448;49.082;9.152;2024-02-21T03:48:31;100111.16;;;9.26;63.81
78229;BME280;74448;49.082;9.152;2024-02-21T03:50:58;100111.16;;;9.26;63.85
78229;BME280;74448;49.082;9.152;2024-02-21T03:53:25;100119.06;;;9.26;63.70
78229;BME280;74448;49.082;9.152;2024-02-21T03:55:51;100113.88;;;9.25;63.97
78229;BME280;74448;49.082;9.152;2024-02-21T03:58:18;100113.03;;;9.24;63.80
78229;BME280;74448;49.082;9.152;2024-02-21T04:00:45;100115.69;;;9.24;63.79
78229;BME280;74448;49.082;9.152;2024-02-21T04:03:11;100112.16;;;9.23;63.92
78229;BME280;74448;49.082;9.152;2024-02-21T04:05:38;100104.25;;;9.23;63.76
78229;BME280;74448;49.082;9.152;2024-02-21T04:08:05;100089.47;;;9.21;63.87
78229;BME280;74448;49.082;9.152;2024-02-21T04:10:32;100082.50;;;9.20;63.88
78229;BME280;74448;49.082;9.152;2024-02-21T04:12:58;100060.63;;;9.18;63.96
78229;BME280;74448;49.082;9.152;2024-02-21T04:15:25;100067.59;;;9.19;63.91
78229;BME280;74448;49.082;9.152;2024-02-21T04:17:52;100074.50;;;9.21;64.06
78229;BME280;74448;49.082;9.152;2024-02-21T04:20:19;100082.69;;;9.17;64.02
78229;BME280;74448;49.082;9.152;2024-02-21T04:22:46;100087.78;;;9.20;63.71
78229;BME280;74448;49.082;9.152;2024-02-21T04:25:13;100083.53;;;9.17;64.04
78229;BME280;74448;49.082;9.152;2024-02-21T04:27:39;100084.38;;;9.18;63.94
78229;BME280;74448;49.082;9.152;2024-02-21T04:30:06;100080.03;;;9.17;63.92
78229;BME280;74448;49.082;9.152;2024-02-21T04:32:33;100078.41;;;9.14;63.98
78229;BME280;74448;49.082;9.152;2024-02-21T04:35:00;100074.94;;;9.14;63.96
78229;BME280;74448;49.082;9.152;2024-02-21T04:37:27;100081.00;;;9.16;64.15
78229;BME280;74448;49.082;9.152;2024-02-21T04:39:53;100089.81;;;9.15;63.84
78229;BME280;74448;49.082;9.152;2024-02-21T04:42:20;100096.03;;;9.14;63.97
78229;BME280;74448;49.082;9.152;2024-02-21T04:44:46;100102.25;;;9.13;64.12
78229;BME280;74448;49.082;9.152;2024-02-21T04:47:13;100095.47;;;9.09;63.98
78229;BME280;74448;49.082;9.152;2024-02-21T04:49:39;100097.00;;;9.13;64.01
78229;BME280;74448;49.082;9.152;2024-02-21T04:52:06;100093.50;;;9.12;64.01
78229;BME280;74448;49.082;9.152;2024-02-21T04:54:33;100087.44;;;9.10;63.88
78229;BME280;74448;49.082;9.152;2024-02-21T04:57:01;100083.03;;;9.11;64.26
78229;BME280;74448;49.082;9.152;2024-02-21T04:59:28;100090.03;;;9.12;63.93
78229;BME280;74448;49.082;9.152;2024-02-21T05:01:55;100082.09;;;9.12;63.80
78229;BME280;74448;49.082;9.152;2024-02-21T05:04:22;100069.84;;;9.11;63.88
78229;BME280;74448;49.082;9.152;2024-02-21T05:06:49;100076.06;;;9.10;64.01
78229;BME280;74448;49.082;9.152;2024-02-21T05:09:15;100063.66;;;9.12;64.10
78229;BME280;74448;49.082;9.152;2024-02-21T05:11:42;100060.22;;;9.10;63.91
78229;BME280;74448;49.082;9.152;2024-02-21T05:14:08;100052.44;;;9.08;64.05
78229;BME280;74448;49.082;9.152;2024-02-21T05:16:35;100039.31;;;9.07;64.05
78229;BME280;74448;49.082;9.152;2024-02-21T05:19:02;100038.19;;;9.11;63.92
78229;BME280;74448;49.082;9.152;2024-02-21T05:21:31;100044.06;;;9.16;63.59
78229;BME280;74448;49.082;9.152;2024-02-21T05:23:57;100031.06;;;9.13;63.80
78229;BME280;74448;49.082;9.152;2024-02-21T05:26:25;100027.47;;;9.14;63.87
78229;BME280;74448;49.082;9.152;2024-02-21T05:28:51;100025.50;;;9.17;63.54
78229;BME280;74448;49.082;9.152;2024-02-21T05:31:19;100018.34;;;9.19;63.51
78229;BME280;74448;49.082;9.152;2024-02-21T05:33:46;100015.81;;;9.18;63.41
78229;BME280;74448;49.082;9.152;2024-02-21T05:36:13;100022.75;;;9.19;63.39
78229;BME280;74448;49.082;9.152;2024-02-21T05:38:40;100020.06;;;9.20;63.59
78229;BME280;74448;49.082;9.152;2024-02-21T05:41:07;100018.53;;;9.16;63.45
78229;BME280;74448;49.082;9.152;2024-02-21T05:43:37;100023.72;;;9.18;63.42
78229;BME280;74448;49.082;9.152;2024-02-21T05:46:04;100021.84;;;9.20;63.53
78229;BME280;74448;49.082;9.152;2024-02-21T05:48:30;100014.28;;;9.14;63.52
78229;BME280;74448;49.082;9.152;2024-02-21T05:51:02;100013.25;;;9.16;63.50
78229;BME280;74448;49.082;9.152;2024-02-21T05:53:29;100015.97;;;9.15;63.48
78229;BME280;74448;49.082;9.152;2024-02-21T05:55:56;100008.16;;;9.13;63.38
78229;BME280;74448;49.082;9.152;2024-02-21T05:58:22;100012.59;;;9.13;63.72
78229;BME280;74448;49.082;9.152;2024-02-21T06:00:49;100018.81;;;9.12;63.50
78229;BME280;74448;49.082;9.152;2024-02-21T06:03:16;100029.38;;;9.12;63.49
78229;BME280;74448;49.082;9.152;2024-02-21T06:05:42;100028.59;;;9.10;63.70
78229;BME280;74448;49.082;9.152;2024-02-21T06:08:09;100019.72;;;9.11;63.58
78229;BME280;74448;49.082;9.152;2024-02-21T06:10:36;100012.03;;;9.08;63.51
78229;BME280;74448;49.082;9.152;2024-02-21T06:13:02;100014.56;;;9.09;63.75
78229;BME280;74448;49.082;9.152;2024-02-21T06:15:29;100012.88;;;9.08;63.61
78229;BME280;74448;49.082;9.152;2024-02-21T06:17:55;100014.66;;;9.08;63.67
78229;BME280;74448;49.082;9.152;2024-02-21T06:20:22;100020.84;;;9.07;63.84
78229;BME280;74448;49.082;9.152;2024-02-21T06:22:49;100016.53;;;9.06;63.79
78229;BME280;74448;49.082;9.152;2024-02-21T06:25:15;100022.75;;;9.05;63.52
78229;BME280;74448;49.082;9.152;2024-02-21T06:27:42;100025.38;;;9.05;63.74
78229;BME280;74448;49.082;9.152;2024-02-21T06:30:10;100023.69;;;9.04;63.67
78229;BME280;74448;49.082;9.152;2024-02-21T06:32:36;100001.09;;;9.00;63.75
78229;BME280;74448;49.082;9.152;2024-02-21T06:35:05;100003.13;;;8.94;63.81
78229;BME280;74448;49.082;9.152;2024-02-21T06:37:32;100003.63;;;9.01;63.84
78229;BME280;74448;49.082;9.152;2024-02-21T06:39:59;99995.81;;;9.00;64.00
78229;BME280;74448;49.082;9.152;2024-02-21T06:42:25;99994.88;;;9.01;63.74
78229;BME280;74448;49.082;9.152;2024-02-21T06:44:52;99995.81;;;9.00;63.86
78229;BME280;74448;49.082;9.152;2024-02-21T06:47:18;100001.94;;;9.00;63.77
78229;BME280;74448;49.082;9.152;2024-02-21T06:49:50;99989.69;;;8.99;63.74
78229;BME280;74448;49.082;9.152;2024-02-21T06:52:18;99987.13;;;8.97;63.77
78229;BME280;74448;49.082;9.152;2024-02-21T06:54:47;99994.09;;;8.98;63.94
78229;BME280;74448;49.082;9.152;2024-02-21T06:57:13;99986.28;;;8.97;63.68
78229;BME280;74448;49.082;9.152;2024-02-21T06:59:42;99980.34;;;8.93;63.83
78229;BME280;74448;49.082;9.152;2024-02-21T07:02:08;99983.75;;;8.95;63.94
78229;BME280;74448;49.082;9.152;2024-02-21T07:04:35;99982.91;;;8.95;64.12
78229;BME280;74448;49.082;9.152;2024-02-21T07:07:02;99982.03;;;8.94;63.71
78229;BME280;74448;49.082;9.152;2024-02-21T07:09:29;99979.50;;;8.93;63.92
78229;BME280;74448;49.082;9.152;2024-02-21T07:11:58;99973.47;;;8.91;63.66
78229;BME280;74448;49.082;9.152;2024-02-21T07:14:25;99976.97;;;8.91;64.13
78229;BME280;74448;49.082;9.152;2024-02-21T07:16:52;99976.97;;;8.91;63.87
78229;BME280;74448;49.082;9.152;2024-02-21T07:19:20;99975.28;;;8.90;64.12
78229;BME280;74448;49.082;9.152;2024-02-21T07:21:46;99990.22;;;8.90;64.12
78229;BME280;74448;49.082;9.152;2024-02-21T07:24:14;99983.25;;;8.89;64.07
78229;BME280;74448;49.082;9.152;2024-02-21T07:26:42;99984.09;;;8.89;63.91
78229;BME280;74448;49.082;9.152;2024-02-21T07:29:10;99971.38;;;8.82;63.92
78229;BME280;74448;49.082;9.152;2024-02-21T07:31:43;99978.25;;;8.84;63.86
78229;BME280;74448;49.082;9.152;2024-02-21T07:34:10;99986.00;;;8.87;64.04
78229;BME280;74448;49.082;9.152;2024-02-21T07:36:37;99980.72;;;8.87;63.97
78229;BME280;74448;49.082;9.152;2024-02-21T07:39:05;99967.72;;;8.84;63.94
78229;BME280;74448;49.082;9.152;2024-02-21T07:41:31;99958.97;;;8.84;63.90
78229;BME280;74448;49.082;9.152;2024-02-21T07:44:00;99955.47;;;8.83;63.95
78229;BME280;74448;49.082;9.152;2024-02-21T07:46:27;99953.78;;;8.82;63.93
78229;BME280;74448;49.082;9.152;2024-02-21T07:48:53;99952.06;;;8.81;64.11
78229;BME280;74448;49.082;9.152;2024-02-21T07:51:20;99949.53;;;8.80;64.12
78229;BME280;74448;49.082;9.152;2024-02-21T07:53:46;99953.84;;;8.81;64.18
78229;BME280;74448;49.082;9.152;2024-02-21T07:56:14;99947.00;;;8.78;63.98
78229;BME280;74448;49.082;9.152;2024-02-21T07:58:42;99946.41;;;8.73;64.10
78229;BME280;74448;49.082;9.152;2024-02-21T08:01:08;99955.81;;;8.77;64.09
78229;BME280;74448;49.082;9.152;2024-02-21T08:03:35;99953.19;;;8.77;64.18
78229;BME280;74448;49.082;9.152;2024-02-21T08:06:03;99956.03;;;8.74;64.08
78229;BME280;74448;49.082;9.152;2024-02-21T08:08:29;99955.06;;;8.75;64.15
78229;BME280;74448;49.082;9.152;2024-02-21T08:10:56;99953.28;;;8.76;63.72
78229;BME280;74448;49.082;9.152;2024-02-21T08:13:23;99949.03;;;8.73;64.00
78229;BME280;74448;49.082;9.152;2024-02-21T08:15:50;99945.47;;;8.74;64.05
78229;BME280;74448;49.082;9.152;2024-02-21T08:18:16;99938.50;;;8.73;64.09
78229;BME280;74448;49.082;9.152;2024-02-21T08:20:43;99935.84;;;8.73;63.94
78229;BME280;74448;49.082;9.152;2024-02-21T08:23:10;99935.97;;;8.71;64.10
78229;BME280;74448;49.082;9.152;2024-02-21T08:25:36;99938.59;;;8.71;64.26
78229;BME280;74448;49.082;9.152;2024-02-21T08:28:04;99929.28;;;8.66;64.24
78229;BME280;74448;49.082;9.152;2024-02-21T08:30:32;99945.75;;;8.69;63.93
78229;BME280;74448;49.082;9.152;2024-02-21T08:32:59;99944.13;;;8.67;64.36
78229;BME280;74448;49.082;9.152;2024-02-21T08:35:26;99933.50;;;8.68;64.13
78229;BME280;74448;49.082;9.152;2024-02-21T08:37:52;99912.88;;;8.61;64.22
78229;BME280;74448;49.082;9.152;2024-02-21T08:40:19;99924.84;;;8.66;64.05
78229;BME280;74448;49.082;9.152;2024-02-21T08:42:48;99914.31;;;8.66;64.36
78229;BME280;74448;49.082;9.152;2024-02-21T08:45:16;99911.09;;;8.61;64.09
78229;BME280;74448;49.082;9.152;2024-02-21T08:47:42;99919.56;;;8.66;64.26
78229;BME280;74448;49.082;9.152;2024-02-21T08:50:10;99908.19;;;8.66;64.16
78229;BME280;74448;49.082;9.152;2024-02-21T08:52:53;99908.25;;;8.64;64.35
78229;BME280;74448;49.082;9.152;2024-02-21T08:55:19;99917.88;;;8.65;64.08
78229;BME280;74448;49.082;9.152;2024-02-21T08:57:46;99902.25;;;8.62;64.19
78229;BME280;74448;49.082;9.152;2024-02-21T09:00:13;99896.88;;;8.64;64.17
78229;BME280;74448;49.082;9.152;2024-02-21T09:02:40;99892.00;;;8.58;64.21
78229;BME280;74448;49.082;9.152;2024-02-21T09:05:10;99889.91;;;8.63;64.22
78229;BME280;74448;49.082;9.152;2024-02-21T09:07:36;99890.75;;;8.63;64.13
78229;BME280;74448;49.082;9.152;2024-02-21T09:10:04;99887.47;;;8.60;64.20
78229;BME280;74448;49.082;9.152;2024-02-21T09:12:30;99887.28;;;8.63;64.00
78229;BME280;74448;49.082;9.152;2024-02-21T09:14:57;99889.06;;;8.62;64.19
78229;BME280;74448;49.082;9.152;2024-02-21T09:17:23;99884.75;;;8.61;64.29
78229;BME280;74448;49.082;9.152;2024-02-21T09:19:51;99890.88;;;8.62;64.01
78229;BME280;74448;49.082;9.152;2024-02-21T09:22:18;99884.75;;;8.61;64.30
78229;BME280;74448;49.082;9.152;2024-02-21T09:24:45;99883.03;;;8.60;64.24
78229;BME280;74448;49.082;9.152;2024-02-21T09:27:12;99887.47;;;8.60;64.26
78229;BME280;74448;49.082;9.152;2024-02-21T09:29:38;99877.75;;;8.60;64.09
78229;BME280;74448;49.082;9.152;2024-02-21T09:32:06;99887.47;;;8.60;64.47
78229;BME280;74448;49.082;9.152;2024-02-21T09:34:33;99877.75;;;8.60;64.31
78229;BME280;74448;49.082;9.152;2024-02-21T09:37:00;99875.13;;;8.60;64.22
78229;BME280;74448;49.082;9.152;2024-02-21T09:39:26;99873.44;;;8.59;64.14
78229;BME280;74448;49.082;9.152;2024-02-21T09:41:58;99864.13;;;8.54;64.21
78229;BME280;74448;49.082;9.152;2024-02-21T09:44:33;99862.81;;;8.61;64.57
78229;BME280;74448;49.082;9.152;2024-02-21T09:47:07;99863.84;;;8.58;64.44
78229;BME280;74448;49.082;9.152;2024-02-21T09:49:36;99856.78;;;8.59;64.17
78229;BME280;74448;49.082;9.152;2024-02-21T09:52:05;99859.41;;;8.59;64.14
78229;BME280;74448;49.082;9.152;2024-02-21T09:54:34;99857.91;;;8.55;64.09
78229;BME280;74448;49.082;9.152;2024-02-21T09:57:01;99856.78;;;8.59;64.27
78229;BME280;74448;49.082;9.152;2024-02-21T09:59:31;99851.53;;;8.59;64.27
78229;BME280;74448;49.082;9.152;2024-02-21T10:01:58;99846.25;;;8.59;64.27
78229;BME280;74448;49.082;9.152;2024-02-21T10:04:29;99838.53;;;8.56;64.25
78229;BME280;74448;49.082;9.152;2024-02-21T10:06:56;99833.06;;;8.59;64.25
78229;BME280;74448;49.082;9.152;2024-02-21T10:09:27;99839.47;;;8.55;64.19
78229;BME280;74448;49.082;9.152;2024-02-21T10:11:56;99832.22;;;8.58;64.11
78229;BME280;74448;49.082;9.152;2024-02-21T10:14:23;99835.81;;;8.57;64.08
78229;BME280;74448;49.082;9.152;2024-02-21T10:16:57;99830.44;;;8.59;64.03
78229;BME280;74448;49.082;9.152;2024-02-21T10:19:25;99816.50;;;8.57;64.42
78229;BME280;74448;49.082;9.152;2024-02-21T10:22:02;99813.78;;;8.58;64.10
78229;BME280;74448;49.082;9.152;2024-02-21T10:24:31;99817.28;;;8.59;64.20
78229;BME280;74448;49.082;9.152;2024-02-21T10:27:03;99803.16;;;8.60;64.26
78229;BME280;74448;49.082;9.152;2024-02-21T10:29:31;99808.41;;;8.60;64.30
78229;BME280;74448;49.082;9.152;2024-02-21T10:34:32;99807.56;;;8.59;64.21
78229;BME280;74448;49.082;9.152;2024-02-21T10:37:05;99801.34;;;8.60;64.26
78229;BME280;74448;49.082;9.152;2024-02-21T10:39:32;99803.16;;;8.60;64.26
78229;BME280;74448;49.082;9.152;2024-02-21T10:42:01;99797.88;;;8.60;64.33
78229;BME280;74448;49.082;9.152;2024-02-21T10:44:32;99789.03;;;8.61;64.38
78229;BME280;74448;49.082;9.152;2024-02-21T10:46:59;99788.28;;;8.59;64.41
78229;BME280;74448;49.082;9.152;2024-02-21T10:49:30;99782.91;;;8.60;64.15
78229;BME280;74448;49.082;9.152;2024-02-21T10:52:24;99773.22;;;8.61;64.26
78229;BME280;74448;49.082;9.152;2024-02-21T10:54:55;99779.34;;;8.61;64.09
78229;BME280;74448;49.082;9.152;2024-02-21T10:57:23;99776.63;;;8.63;64.15
78229;BME280;74448;49.082;9.152;2024-02-21T10:59:51;99767.75;;;8.64;64.19
78229;BME280;74448;49.082;9.152;2024-02-21T11:02:19;99759.84;;;8.64;64.17
78229;BME280;74448;49.082;9.152;2024-02-21T11:04:47;99753.75;;;8.63;64.04
78229;BME280;74448;49.082;9.152;2024-02-21T11:07:15;99758.91;;;8.65;64.16
78229;BME280;74448;49.082;9.152;2024-02-21T11:09:51;99753.63;;;8.65;64.08
78229;BME280;74448;49.082;9.152;2024-02-21T11:12:23;99743.97;;;8.65;64.17
78229;BME280;74448;49.082;9.152;2024-02-21T11:14:50;99733.44;;;8.65;64.36
78229;BME280;74448;49.082;9.152;2024-02-21T11:17:20;99730.69;;;8.67;64.11
78229;BME280;74448;49.082;9.152;2024-02-21T11:19:53;99728.91;;;8.67;64.33
78229;BME280;74448;49.082;9.152;2024-02-21T11:22:20;99715.72;;;8.67;64.09
78229;BME280;74448;49.082;9.152;2024-02-21T11:25:06;99715.63;;;8.69;64.12
78229;BME280;74448;49.082;9.152;2024-02-21T11:27:34;99712.97;;;8.69;64.03
78229;BME280;74448;49.082;9.152;2024-02-21T11:30:03;99709.44;;;8.70;64.12
78229;BME280;74448;49.082;9.152;2024-02-21T11:32:31;99693.63;;;8.70;64.07
78229;BME280;74448;49.082;9.152;2024-02-21T11:35:02;99688.34;;;8.70;64.15
78229;BME280;74448;49.082;9.152;2024-02-21T11:37:33;99689.19;;;8.70;64.13
78229;BME280;74448;49.082;9.152;2024-02-21T11:40:01;99682.13;;;8.71;64.13
78229;BME280;74448;49.082;9.152;2024-02-21T11:42:30;99684.75;;;8.71;64.30
78229;BME280;74448;49.082;9.152;2024-02-21T11:44:57;99673.28;;;8.72;64.10
78229;BME280;74448;49.082;9.152;2024-02-21T11:47:24;99670.63;;;8.72;64.31
78229;BME280;74448;49.082;9.152;2024-02-21T11:49:50;99669.69;;;8.73;64.08
78229;BME280;74448;49.082;9.152;2024-02-21T11:52:25;99663.50;;;8.74;64.29
78229;BME280;74448;49.082;9.152;2024-02-21T11:54:53;99655.47;;;8.76;64.07
78229;BME280;74448;49.082;9.152;2024-02-21T11:57:21;99646.53;;;8.78;64.13
78229;BME280;74448;49.082;9.152;2024-02-21T11:59:48;99653.56;;;8.78;63.99
78229;BME280;74448;49.082;9.152;2024-02-21T12:02:17;99638.53;;;8.80;64.15
78229;BME280;74448;49.082;9.152;2024-02-21T12:04:45;99631.47;;;8.80;64.05
78229;BME280;74448;49.082;9.152;2024-02-21T12:07:12;99633.16;;;8.81;63.75
78229;BME280;74448;49.082;9.152;2024-02-21T12:09:38;99626.84;;;8.84;63.98
78229;BME280;74448;49.082;9.152;2024-02-21T12:12:08;99621.75;;;8.81;64.20
78229;BME280;74448;49.082;9.152;2024-02-21T12:14:34;99615.66;;;8.80;64.11
78229;BME280;74448;49.082;9.152;2024-02-21T12:17:02;99605.00;;;8.82;64.20
78229;BME280;74448;49.082;9.152;2024-02-21T12:19:33;99598.88;;;8.81;64.06
78229;BME280;74448;49.082;9.152;2024-02-21T12:22:00;99590.25;;;8.79;64.20
78229;BME280;74448;49.082;9.152;2024-02-21T12:24:28;99589.28;;;8.80;63.91
78229;BME280;74448;49.082;9.152;2024-02-21T12:26:56;99583.38;;;8.77;64.26
78229;BME280;74448;49.082;9.152;2024-02-21T12:29:23;99571.03;;;8.77;64.31
78229;BME280;74448;49.082;9.152;2024-02-21T12:31:53;99575.38;;;8.78;64.23
78229;BME280;74448;49.082;9.152;2024-02-21T12:34:22;99568.75;;;8.85;64.29
78229;BME280;74448;49.082;9.152;2024-02-21T12:37:04;99574.13;;;8.84;64.36
78229;BME280;74448;49.082;9.152;2024-02-21T12:39:30;99566.09;;;8.85;64.20
78229;BME280;74448;49.082;9.152;2024-02-21T12:41:59;99556.31;;;8.87;64.38
78229;BME280;74448;49.082;9.152;2024-02-21T12:44:25;99542.94;;;8.90;64.10
78229;BME280;74448;49.082;9.152;2024-02-21T12:46:52;99538.53;;;8.91;63.97
78229;BME280;74448;49.082;9.152;2024-02-21T12:49:21;99537.88;;;8.87;64.36
78229;BME280;74448;49.082;9.152;2024-02-21T12:51:49;99530.91;;;8.86;64.28
78229;BME280;74448;49.082;9.152;2024-02-21T12:54:15;99529.84;;;8.89;64.16
78229;BME280;74448;49.082;9.152;2024-02-21T12:56:42;99523.44;;;8.93;64.09
78229;BME280;74448;49.082;9.152;2024-02-21T12:59:08;99521.63;;;8.93;64.22
78229;BME280;74448;49.082;9.152;2024-02-21T13:01:36;99505.41;;;8.87;64.17
78229;BME280;74448;49.082;9.152;2024-02-21T13:04:04;99511.09;;;8.93;64.29
78229;BME280;74448;49.082;9.152;2024-02-21T13:06:31;99516.16;;;8.96;63.91
78229;BME280;74448;49.082;9.152;2024-02-21T13:08:58;99509.84;;;8.99;63.90